sensor_id;sensor_type;location;lat;lon;timestamp;pressure;altitude;pressure_sealevel;temperature
20058;BMP180;10189;49.546;7.906;2023-04-25T00:01:46;97543.00;;;10.00
20058;BMP180;10189;49.546;7.906;2023-04-25T00:04:12;97530.00;;;10.10
20058;BMP180;10189;49.546;7.906;2023-04-25T00:06:39;97536.00;;;10.00
20058;BMP180;10189;49.546;7.906;2023-04-25T00:09:06;97539.00;;;9.90
20058;BMP180;10189;49.546;7.906;2023-04-25T00:11:35;97535.00;;;9.90
20058;BMP180;10189;49.546;7.906;2023-04-25T00:14:03;97536.00;;;9.90
20058;BMP180;10189;49.546;7.906;2023-04-25T00:16:30;97519.00;;;10.00
20058;BMP180;10189;49.546;7.906;2023-04-25T00:18:59;97543.00;;;10.00
20058;BMP180;10189;49.546;7.906;2023-04-25T00:21:25;97533.00;;;10.00
20058;BMP180;10189;49.546;7.906;2023-04-25T00:23:53;97533.00;;;10.00
20058;BMP180;10189;49.546;7.906;2023-04-25T00:26:19;97533.00;;;10.00
20058;BMP180;10189;49.546;7.906;2023-04-25T00:28:50;97538.00;;;10.00
20058;BMP180;10189;49.546;7.906;2023-04-25T00:31:16;97530.00;;;10.00
20058;BMP180;10189;49.546;7.906;2023-04-25T00:33:42;97531.00;;;10.00
20058;BMP180;10189;49.546;7.906;2023-04-25T00:36:08;97524.00;;;10.10
20058;BMP180;10189;49.546;7.906;2023-04-25T00:38:34;97527.00;;;10.10
20058;BMP180;10189;49.546;7.906;2023-04-25T00:41:00;97526.00;;;10.10
20058;BMP180;10189;49.546;7.906;2023-04-25T00:43:27;97516.00;;;10.10
20058;BMP180;10189;49.546;7.906;2023-04-25T00:45:53;97515.00;;;10.10
20058;BMP180;10189;49.546;7.906;2023-04-25T00:48:22;97515.00;;;10.00
20058;BMP180;10189;49.546;7.906;2023-04-25T00:50:57;97516.00;;;10.00
20058;BMP180;10189;49.546;7.906;2023-04-25T00:53:27;97514.00;;;10.00
20058;BMP180;10189;49.546;7.906;2023-04-25T00:55:54;97501.00;;;10.00
20058;BMP180;10189;49.546;7.906;2023-04-25T00:58:22;97501.00;;;10.00
20058;BMP180;10189;49.546;7.906;2023-04-25T01:00:50;97504.00;;;10.00
20058;BMP180;10189;49.546;7.906;2023-04-25T01:03:18;97512.00;;;10.10
20058;BMP180;10189;49.546;7.906;2023-04-25T01:05:46;97509.00;;;10.10
20058;BMP180;10189;49.546;7.906;2023-04-25T01:08:13;97498.00;;;10.10
20058;BMP180;10189;49.546;7.906;2023-04-25T01:10:39;97496.00;;;10.00
20058;BMP180;10189;49.546;7.906;2023-04-25T01:13:06;97500.00;;;10.00
20058;BMP180;10189;49.546;7.906;2023-04-25T01:15:32;97490.00;;;9.90
20058;BMP180;10189;49.546;7.906;2023-04-25T01:17:58;97497.00;;;9.90
20058;BMP180;10189;49.546;7.906;2023-04-25T01:20:26;97500.00;;;9.90
20058;BMP180;10189;49.546;7.906;2023-04-25T01:22:55;97489.00;;;9.90
20058;BMP180;10189;49.546;7.906;2023-04-25T01:25:22;97491.00;;;9.90
20058;BMP180;10189;49.546;7.906;2023-04-25T01:27:48;97496.00;;;9.90
20058;BMP180;10189;49.546;7.906;2023-04-25T01:30:15;97509.00;;;10.00
20058;BMP180;10189;49.546;7.906;2023-04-25T01:32:42;97492.00;;;9.90
20058;BMP180;10189;49.546;7.906;2023-04-25T01:35:11;97491.00;;;9.90
20058;BMP180;10189;49.546;7.906;2023-04-25T01:37:38;97503.00;;;9.80
20058;BMP180;10189;49.546;7.906;2023-04-25T01:40:05;97499.00;;;9.80
20058;BMP180;10189;49.546;7.906;2023-04-25T01:42:32;97502.00;;;9.90
20058;BMP180;10189;49.546;7.906;2023-04-25T01:44:59;97511.00;;;9.80
20058;BMP180;10189;49.546;7.906;2023-04-25T01:47:26;97505.00;;;9.90
20058;BMP180;10189;49.546;7.906;2023-04-25T01:49:54;97502.00;;;10.00
20058;BMP180;10189;49.546;7.906;2023-04-25T01:52:20;97517.00;;;10.00
20058;BMP180;10189;49.546;7.906;2023-04-25T01:54:47;97496.00;;;10.10
20058;BMP180;10189;49.546;7.906;2023-04-25T01:57:14;97500.00;;;10.00
20058;BMP180;10189;49.546;7.906;2023-04-25T01:59:43;97494.00;;;10.00
20058;BMP180;10189;49.546;7.906;2023-04-25T02:02:35;97502.00;;;9.90
20058;BMP180;10189;49.546;7.906;2023-04-25T02:05:01;97498.00;;;9.90
20058;BMP180;10189;49.546;7.906;2023-04-25T02:07:28;97502.00;;;9.90
20058;BMP180;10189;49.546;7.906;2023-04-25T02:09:53;97500.00;;;9.90
20058;BMP180;10189;49.546;7.906;2023-04-25T02:12:21;97495.00;;;10.00
20058;BMP180;10189;49.546;7.906;2023-04-25T02:15:05;97500.00;;;10.00
20058;BMP180;10189;49.546;7.906;2023-04-25T02:17:47;97497.00;;;10.00
20058;BMP180;10189;49.546;7.906;2023-04-25T02:20:13;97495.00;;;9.90
20058;BMP180;10189;49.546;7.906;2023-04-25T02:22:39;97487.00;;;9.90
20058;BMP180;10189;49.546;7.906;2023-04-25T02:25:06;97477.00;;;9.80
20058;BMP180;10189;49.546;7.906;2023-04-25T02:27:35;97488.00;;;9.90
20058;BMP180;10189;49.546;7.906;2023-04-25T02:30:01;97474.00;;;9.90
20058;BMP180;10189;49.546;7.906;2023-04-25T02:32:27;97491.00;;;9.80
20058;BMP180;10189;49.546;7.906;2023-04-25T02:34:53;97488.00;;;9.70
20058;BMP180;10189;49.546;7.906;2023-04-25T02:37:19;97486.00;;;9.70
20058;BMP180;10189;49.546;7.906;2023-04-25T02:39:45;97496.00;;;9.60
20058;BMP180;10189;49.546;7.906;2023-04-25T02:42:11;97495.00;;;9.70
20058;BMP180;10189;49.546;7.906;2023-04-25T02:44:37;97495.00;;;9.60
20058;BMP180;10189;49.546;7.906;2023-04-25T02:47:04;97494.00;;;9.70
20058;BMP180;10189;49.546;7.906;2023-04-25T02:49:30;97492.00;;;9.70
20058;BMP180;10189;49.546;7.906;2023-04-25T02:51:56;97494.00;;;9.80
20058;BMP180;10189;49.546;7.906;2023-04-25T02:54:22;97490.00;;;9.80
20058;BMP180;10189;49.546;7.906;2023-04-25T02:56:48;97497.00;;;9.70
20058;BMP180;10189;49.546;7.906;2023-04-25T02:59:20;97493.00;;;9.70
20058;BMP180;10189;49.546;7.906;2023-04-25T03:01:45;97492.00;;;9.80
20058;BMP180;10189;49.546;7.906;2023-04-25T03:04:11;97487.00;;;9.80
20058;BMP180;10189;49.546;7.906;2023-04-25T03:06:37;97489.00;;;9.80
20058;BMP180;10189;49.546;7.906;2023-04-25T03:09:03;97486.00;;;9.70
20058;BMP180;10189;49.546;7.906;2023-04-25T03:11:30;97482.00;;;9.70
20058;BMP180;10189;49.546;7.906;2023-04-25T03:13:55;97483.00;;;9.70
20058;BMP180;10189;49.546;7.906;2023-04-25T03:16:24;97492.00;;;9.60
20058;BMP180;10189;49.546;7.906;2023-04-25T03:18:50;97488.00;;;9.50
20058;BMP180;10189;49.546;7.906;2023-04-25T03:21:17;97489.00;;;9.50
20058;BMP180;10189;49.546;7.906;2023-04-25T03:23:43;97477.00;;;9.40
20058;BMP180;10189;49.546;7.906;2023-04-25T03:26:08;97487.00;;;9.40
20058;BMP180;10189;49.546;7.906;2023-04-25T03:28:34;97485.00;;;9.30
20058;BMP180;10189;49.546;7.906;2023-04-25T03:31:00;97481.00;;;9.30
20058;BMP180;10189;49.546;7.906;2023-04-25T03:33:26;97490.00;;;9.30
20058;BMP180;10189;49.546;7.906;2023-04-25T03:35:52;97485.00;;;9.20
20058;BMP180;10189;49.546;7.906;2023-04-25T03:38:18;97490.00;;;9.20
20058;BMP180;10189;49.546;7.906;2023-04-25T03:40:45;97501.00;;;9.10
20058;BMP180;10189;49.546;7.906;2023-04-25T03:43:24;97492.00;;;9.10
20058;BMP180;10189;49.546;7.906;2023-04-25T03:45:56;97497.00;;;9.20
20058;BMP180;10189;49.546;7.906;2023-04-25T03:48:23;97500.00;;;9.10
20058;BMP180;10189;49.546;7.906;2023-04-25T03:50:50;97497.00;;;9.00
20058;BMP180;10189;49.546;7.906;2023-04-25T03:53:16;97519.00;;;9.00
20058;BMP180;10189;49.546;7.906;2023-04-25T03:56:02;97501.00;;;9.00
20058;BMP180;10189;49.546;7.906;2023-04-25T03:58:32;97498.00;;;9.10
20058;BMP180;10189;49.546;7.906;2023-04-25T04:00:58;97503.00;;;9.20
20058;BMP180;10189;49.546;7.906;2023-04-25T04:03:24;97510.00;;;9.20
20058;BMP180;10189;49.546;7.906;2023-04-25T04:05:50;97495.00;;;9.10
20058;BMP180;10189;49.546;7.906;2023-04-25T04:08:17;97497.00;;;9.10
20058;BMP180;10189;49.546;7.906;2023-04-25T04:10:42;97501.00;;;9.10
20058;BMP180;10189;49.546;7.906;2023-04-25T04:13:09;97498.00;;;9.10
20058;BMP180;10189;49.546;7.906;2023-04-25T04:15:34;97494.00;;;9.10
20058;BMP180;10189;49.546;7.906;2023-04-25T04:18:01;97499.00;;;9.10
20058;BMP180;10189;49.546;7.906;2023-04-25T04:20:29;97496.00;;;9.30
20058;BMP180;10189;49.546;7.906;2023-04-25T04:22:58;97500.00;;;9.20
20058;BMP180;10189;49.546;7.906;2023-04-25T04:25:24;97513.00;;;9.20
20058;BMP180;10189;49.546;7.906;2023-04-25T04:28:24;97492.00;;;9.40
20058;BMP180;10189;49.546;7.906;2023-04-25T04:31:01;97504.00;;;9.20
20058;BMP180;10189;49.546;7.906;2023-04-25T04:33:28;97505.00;;;9.20
20058;BMP180;10189;49.546;7.906;2023-04-25T04:35:58;97502.00;;;9.40
20058;BMP180;10189;49.546;7.906;2023-04-25T04:38:25;97505.00;;;9.60
20058;BMP180;10189;49.546;7.906;2023-04-25T04:40:53;97500.00;;;9.60
20058;BMP180;10189;49.546;7.906;2023-04-25T04:43:37;97501.00;;;9.70
20058;BMP180;10189;49.546;7.906;2023-04-25T04:46:21;97500.00;;;9.70
20058;BMP180;10189;49.546;7.906;2023-04-25T04:49:20;97513.00;;;9.80
20058;BMP180;10189;49.546;7.906;2023-04-25T04:52:04;97494.00;;;9.90
20058;BMP180;10189;49.546;7.906;2023-04-25T04:54:50;97510.00;;;9.90
20058;BMP180;10189;49.546;7.906;2023-04-25T04:57:37;97524.00;;;9.90
20058;BMP180;10189;49.546;7.906;2023-04-25T05:00:29;97528.00;;;9.90
20058;BMP180;10189;49.546;7.906;2023-04-25T05:03:14;97534.00;;;9.80
20058;BMP180;10189;49.546;7.906;2023-04-25T05:05:50;97528.00;;;9.80
20058;BMP180;10189;49.546;7.906;2023-04-25T05:08:39;97539.00;;;9.80
20058;BMP180;10189;49.546;7.906;2023-04-25T05:11:24;97533.00;;;9.80
20058;BMP180;10189;49.546;7.906;2023-04-25T05:14:01;97539.00;;;9.90
20058;BMP180;10189;49.546;7.906;2023-04-25T05:16:36;97541.00;;;9.80
20058;BMP180;10189;49.546;7.906;2023-04-25T05:19:21;97537.00;;;9.80
20058;BMP180;10189;49.546;7.906;2023-04-25T05:22:10;97530.00;;;10.00
20058;BMP180;10189;49.546;7.906;2023-04-25T05:25:02;97537.00;;;10.10
20058;BMP180;10189;49.546;7.906;2023-04-25T05:27:58;97540.00;;;10.00
20058;BMP180;10189;49.546;7.906;2023-04-25T05:30:42;97534.00;;;10.10
20058;BMP180;10189;49.546;7.906;2023-04-25T05:33:20;97532.00;;;10.20
20058;BMP180;10189;49.546;7.906;2023-04-25T05:35:46;97534.00;;;10.20
20058;BMP180;10189;49.546;7.906;2023-04-25T05:38:13;97538.00;;;10.30
20058;BMP180;10189;49.546;7.906;2023-04-25T05:40:58;97537.00;;;10.30
20058;BMP180;10189;49.546;7.906;2023-04-25T05:43:46;97539.00;;;10.30
20058;BMP180;10189;49.546;7.906;2023-04-25T05:46:22;97541.00;;;10.30
20058;BMP180;10189;49.546;7.906;2023-04-25T05:48:59;97541.00;;;10.20
20058;BMP180;10189;49.546;7.906;2023-04-25T05:51:49;97549.00;;;10.30
20058;BMP180;10189;49.546;7.906;2023-04-25T05:54:37;97549.00;;;10.10
20058;BMP180;10189;49.546;7.906;2023-04-25T05:57:04;97542.00;;;10.20
20058;BMP180;10189;49.546;7.906;2023-04-25T05:59:30;97548.00;;;10.20
20058;BMP180;10189;49.546;7.906;2023-04-25T06:01:56;97559.00;;;10.20
20058;BMP180;10189;49.546;7.906;2023-04-25T06:04:23;97557.00;;;10.20
20058;BMP180;10189;49.546;7.906;2023-04-25T06:06:49;97559.00;;;10.20
20058;BMP180;10189;49.546;7.906;2023-04-25T06:09:15;97563.00;;;10.40
20058;BMP180;10189;49.546;7.906;2023-04-25T06:11:41;97557.00;;;10.40
20058;BMP180;10189;49.546;7.906;2023-04-25T06:14:07;97561.00;;;10.40
20058;BMP180;10189;49.546;7.906;2023-04-25T06:16:36;97561.00;;;10.40
20058;BMP180;10189;49.546;7.906;2023-04-25T06:19:02;97562.00;;;10.30
20058;BMP180;10189;49.546;7.906;2023-04-25T06:21:28;97564.00;;;10.40
20058;BMP180;10189;49.546;7.906;2023-04-25T06:23:54;97563.00;;;10.30
20058;BMP180;10189;49.546;7.906;2023-04-25T06:26:22;97569.00;;;10.40
20058;BMP180;10189;49.546;7.906;2023-04-25T06:28:49;97569.00;;;10.40
20058;BMP180;10189;49.546;7.906;2023-04-25T06:31:15;97573.00;;;10.30
20058;BMP180;10189;49.546;7.906;2023-04-25T06:33:42;97572.00;;;10.30
20058;BMP180;10189;49.546;7.906;2023-04-25T06:36:08;97564.00;;;10.30
20058;BMP180;10189;49.546;7.906;2023-04-25T06:38:36;97568.00;;;10.50
20058;BMP180;10189;49.546;7.906;2023-04-25T06:41:02;97572.00;;;10.50
20058;BMP180;10189;49.546;7.906;2023-04-25T06:43:33;97565.00;;;10.60
20058;BMP180;10189;49.546;7.906;2023-04-25T06:46:18;97572.00;;;10.70
20058;BMP180;10189;49.546;7.906;2023-04-25T06:48:46;97574.00;;;10.80
20058;BMP180;10189;49.546;7.906;2023-04-25T06:51:12;97574.00;;;10.70
20058;BMP180;10189;49.546;7.906;2023-04-25T06:53:40;97577.00;;;10.80
20058;BMP180;10189;49.546;7.906;2023-04-25T06:56:09;97569.00;;;11.00
20058;BMP180;10189;49.546;7.906;2023-04-25T06:58:45;97579.00;;;11.10
20058;BMP180;10189;49.546;7.906;2023-04-25T07:01:15;97576.00;;;10.90
20058;BMP180;10189;49.546;7.906;2023-04-25T07:03:41;97572.00;;;11.00
20058;BMP180;10189;49.546;7.906;2023-04-25T07:06:13;97579.00;;;10.80
20058;BMP180;10189;49.546;7.906;2023-04-25T07:08:39;97582.00;;;10.50
20058;BMP180;10189;49.546;7.906;2023-04-25T07:11:05;97592.00;;;10.20
20058;BMP180;10189;49.546;7.906;2023-04-25T07:13:31;97601.00;;;10.10
20058;BMP180;10189;49.546;7.906;2023-04-25T07:15:57;97604.00;;;9.90
20058;BMP180;10189;49.546;7.906;2023-04-25T07:18:23;97607.00;;;9.80
20058;BMP180;10189;49.546;7.906;2023-04-25T07:20:49;97617.00;;;9.50
20058;BMP180;10189;49.546;7.906;2023-04-25T07:23:15;97595.00;;;9.60
20058;BMP180;10189;49.546;7.906;2023-04-25T07:25:42;97610.00;;;9.50
20058;BMP180;10189;49.546;7.906;2023-04-25T07:28:08;97603.00;;;9.60
20058;BMP180;10189;49.546;7.906;2023-04-25T07:30:35;97613.00;;;9.60
20058;BMP180;10189;49.546;7.906;2023-04-25T07:33:03;97616.00;;;9.60
20058;BMP180;10189;49.546;7.906;2023-04-25T07:35:29;97607.00;;;9.70
20058;BMP180;10189;49.546;7.906;2023-04-25T07:37:55;97608.00;;;9.80
20058;BMP180;10189;49.546;7.906;2023-04-25T07:40:21;97618.00;;;10.00
20058;BMP180;10189;49.546;7.906;2023-04-25T07:42:54;97616.00;;;10.10
20058;BMP180;10189;49.546;7.906;2023-04-25T07:45:39;97627.00;;;10.10
20058;BMP180;10189;49.546;7.906;2023-04-25T07:48:06;97619.00;;;10.40
20058;BMP180;10189;49.546;7.906;2023-04-25T07:50:35;97613.00;;;10.50
20058;BMP180;10189;49.546;7.906;2023-04-25T07:53:01;97619.00;;;10.40
20058;BMP180;10189;49.546;7.906;2023-04-25T07:55:33;97621.00;;;10.40
20058;BMP180;10189;49.546;7.906;2023-04-25T07:58:08;97633.00;;;10.40
20058;BMP180;10189;49.546;7.906;2023-04-25T08:00:37;97637.00;;;10.40
20058;BMP180;10189;49.546;7.906;2023-04-25T08:03:23;97642.00;;;10.20
20058;BMP180;10189;49.546;7.906;2023-04-25T08:05:50;97650.00;;;10.40
20058;BMP180;10189;49.546;7.906;2023-04-25T08:08:17;97645.00;;;10.40
20058;BMP180;10189;49.546;7.906;2023-04-25T08:10:43;97642.00;;;10.30
20058;BMP180;10189;49.546;7.906;2023-04-25T08:13:09;97659.00;;;10.30
20058;BMP180;10189;49.546;7.906;2023-04-25T08:15:36;97662.00;;;10.20
20058;BMP180;10189;49.546;7.906;2023-04-25T08:18:02;97665.00;;;10.30
20058;BMP180;10189;49.546;7.906;2023-04-25T08:20:28;97656.00;;;10.40
20058;BMP180;10189;49.546;7.906;2023-04-25T08:22:57;97664.00;;;10.50
20058;BMP180;10189;49.546;7.906;2023-04-25T08:25:30;97674.00;;;10.20
20058;BMP180;10189;49.546;7.906;2023-04-25T08:27:56;97689.00;;;10.40
20058;BMP180;10189;49.546;7.906;2023-04-25T08:30:23;97680.00;;;10.40
20058;BMP180;10189;49.546;7.906;2023-04-25T08:32:50;97678.00;;;10.50
20058;BMP180;10189;49.546;7.906;2023-04-25T08:35:29;97687.00;;;10.80
20058;BMP180;10189;49.546;7.906;2023-04-25T08:37:55;97690.00;;;10.70
20058;BMP180;10189;49.546;7.906;2023-04-25T08:40:23;97691.00;;;10.80
20058;BMP180;10189;49.546;7.906;2023-04-25T08:42:58;97686.00;;;11.00
20058;BMP180;10189;49.546;7.906;2023-04-25T08:45:29;97692.00;;;11.00
20058;BMP180;10189;49.546;7.906;2023-04-25T08:47:57;97692.00;;;11.00
20058;BMP180;10189;49.546;7.906;2023-04-25T08:50:23;97700.00;;;10.90
20058;BMP180;10189;49.546;7.906;2023-04-25T08:52:53;97705.00;;;10.80
20058;BMP180;10189;49.546;7.906;2023-04-25T08:55:22;97711.00;;;10.90
20058;BMP180;10189;49.546;7.906;2023-04-25T08:57:54;97713.00;;;10.80
20058;BMP180;10189;49.546;7.906;2023-04-25T09:00:22;97712.00;;;10.80
20058;BMP180;10189;49.546;7.906;2023-04-25T09:02:48;97717.00;;;11.20
20058;BMP180;10189;49.546;7.906;2023-04-25T09:05:15;97709.00;;;11.20
20058;BMP180;10189;49.546;7.906;2023-04-25T09:07:41;97720.00;;;11.10
20058;BMP180;10189;49.546;7.906;2023-04-25T09:10:08;97720.00;;;11.30
20058;BMP180;10189;49.546;7.906;2023-04-25T09:12:36;97738.00;;;11.30
20058;BMP180;10189;49.546;7.906;2023-04-25T09:15:11;97736.00;;;11.00
20058;BMP180;10189;49.546;7.906;2023-04-25T09:17:55;97740.00;;;10.80
20058;BMP180;10189;49.546;7.906;2023-04-25T09:20:22;97746.00;;;10.90
20058;BMP180;10189;49.546;7.906;2023-04-25T09:22:48;97750.00;;;11.00
20058;BMP180;10189;49.546;7.906;2023-04-25T09:25:14;97751.00;;;11.00
20058;BMP180;10189;49.546;7.906;2023-04-25T09:27:54;97744.00;;;11.40
20058;BMP180;10189;49.546;7.906;2023-04-25T09:30:34;97753.00;;;11.60
20058;BMP180;10189;49.546;7.906;2023-04-25T09:33:14;97765.00;;;11.50
20058;BMP180;10189;49.546;7.906;2023-04-25T09:35:45;97756.00;;;11.40
20058;BMP180;10189;49.546;7.906;2023-04-25T09:38:25;97774.00;;;11.40
20058;BMP180;10189;49.546;7.906;2023-04-25T09:40:52;97765.00;;;11.40
20058;BMP180;10189;49.546;7.906;2023-04-25T09:43:35;97770.00;;;11.30
20058;BMP180;10189;49.546;7.906;2023-04-25T09:46:02;97790.00;;;11.30
20058;BMP180;10189;49.546;7.906;2023-04-25T09:48:29;97777.00;;;11.20
20058;BMP180;10189;49.546;7.906;2023-04-25T09:51:13;97768.00;;;11.60
20058;BMP180;10189;49.546;7.906;2023-04-25T09:53:45;97779.00;;;11.80
20058;BMP180;10189;49.546;7.906;2023-04-25T09:56:35;97776.00;;;12.20
20058;BMP180;10189;49.546;7.906;2023-04-25T09:59:07;97778.00;;;12.40
20058;BMP180;10189;49.546;7.906;2023-04-25T10:01:39;97777.00;;;12.20
20058;BMP180;10189;49.546;7.906;2023-04-25T10:04:12;97778.00;;;12.30
20058;BMP180;10189;49.546;7.906;2023-04-25T10:06:57;97775.00;;;13.00
20058;BMP180;10189;49.546;7.906;2023-04-25T10:09:26;97776.00;;;12.70
20058;BMP180;10189;49.546;7.906;2023-04-25T10:11:54;97780.00;;;12.30
20058;BMP180;10189;49.546;7.906;2023-04-25T10:14:20;97784.00;;;12.40
20058;BMP180;10189;49.546;7.906;2023-04-25T10:16:48;97800.00;;;12.40
20058;BMP180;10189;49.546;7.906;2023-04-25T10:19:14;97802.00;;;12.00
20058;BMP180;10189;49.546;7.906;2023-04-25T10:22:12;97793.00;;;12.20
20058;BMP180;10189;49.546;7.906;2023-04-25T10:24:41;97807.00;;;12.10
20058;BMP180;10189;49.546;7.906;2023-04-25T10:27:07;97801.00;;;12.30
20058;BMP180;10189;49.546;7.906;2023-04-25T10:29:35;97796.00;;;12.30
20058;BMP180;10189;49.546;7.906;2023-04-25T10:32:02;97803.00;;;12.60
20058;BMP180;10189;49.546;7.906;2023-04-25T10:34:46;97804.00;;;12.20
20058;BMP180;10189;49.546;7.906;2023-04-25T10:37:14;97806.00;;;12.40
20058;BMP180;10189;49.546;7.906;2023-04-25T10:39:42;97794.00;;;12.80
20058;BMP180;10189;49.546;7.906;2023-04-25T10:42:08;97794.00;;;12.60
20058;BMP180;10189;49.546;7.906;2023-04-25T10:44:36;97791.00;;;12.90
20058;BMP180;10189;49.546;7.906;2023-04-25T10:47:02;97797.00;;;13.20
20058;BMP180;10189;49.546;7.906;2023-04-25T10:49:41;97797.00;;;12.90
20058;BMP180;10189;49.546;7.906;2023-04-25T10:54:57;97796.00;;;12.80
20058;BMP180;10189;49.546;7.906;2023-04-25T11:00:01;97795.00;;;12.30
20058;BMP180;10189;49.546;7.906;2023-04-25T11:02:48;97807.00;;;12.70
20058;BMP180;10189;49.546;7.906;2023-04-25T11:05:34;97814.00;;;12.80
20058;BMP180;10189;49.546;7.906;2023-04-25T11:08:01;97799.00;;;13.00
20058;BMP180;10189;49.546;7.906;2023-04-25T11:10:33;97805.00;;;13.10
20058;BMP180;10189;49.546;7.906;2023-04-25T11:13:02;97816.00;;;13.30
20058;BMP180;10189;49.546;7.906;2023-04-25T11:15:28;97807.00;;;13.60
20058;BMP180;10189;49.546;7.906;2023-04-25T11:17:55;97803.00;;;13.80
20058;BMP180;10189;49.546;7.906;2023-04-25T11:20:22;97804.00;;;13.80
20058;BMP180;10189;49.546;7.906;2023-04-25T11:22:51;97810.00;;;13.50
20058;BMP180;10189;49.546;7.906;2023-04-25T11:25:17;97812.00;;;13.50
20058;BMP180;10189;49.546;7.906;2023-04-25T11:27:53;97825.00;;;13.60
20058;BMP180;10189;49.546;7.906;2023-04-25T11:30:21;97818.00;;;13.60
20058;BMP180;10189;49.546;7.906;2023-04-25T11:32:47;97829.00;;;13.00
20058;BMP180;10189;49.546;7.906;2023-04-25T11:35:14;97828.00;;;12.50
20058;BMP180;10189;49.546;7.906;2023-04-25T11:37:42;97832.00;;;12.60
20058;BMP180;10189;49.546;7.906;2023-04-25T11:40:10;97816.00;;;12.60
20058;BMP180;10189;49.546;7.906;2023-04-25T11:42:44;97831.00;;;12.40
20058;BMP180;10189;49.546;7.906;2023-04-25T11:45:10;97836.00;;;12.00
20058;BMP180;10189;49.546;7.906;2023-04-25T11:47:37;97838.00;;;12.00
20058;BMP180;10189;49.546;7.906;2023-04-25T11:50:06;97844.00;;;11.90
20058;BMP180;10189;49.546;7.906;2023-04-25T11:52:47;97844.00;;;11.90
20058;BMP180;10189;49.546;7.906;2023-04-25T11:55:20;97845.00;;;11.90
20058;BMP180;10189;49.546;7.906;2023-04-25T11:57:48;97848.00;;;12.00
20058;BMP180;10189;49.546;7.906;2023-04-25T12:00:19;97834.00;;;12.30
20058;BMP180;10189;49.546;7.906;2023-04-25T12:02:51;97837.00;;;12.60
20058;BMP180;10189;49.546;7.906;2023-04-25T12:05:17;97827.00;;;13.30
20058;BMP180;10189;49.546;7.906;2023-04-25T12:07:43;97814.00;;;13.70
20058;BMP180;10189;49.546;7.906;2023-04-25T12:10:15;97801.00;;;14.10
20058;BMP180;10189;49.546;7.906;2023-04-25T12:12:46;97804.00;;;14.60
20058;BMP180;10189;49.546;7.906;2023-04-25T12:15:18;97818.00;;;14.70
20058;BMP180;10189;49.546;7.906;2023-04-25T12:17:49;97810.00;;;15.30
20058;BMP180;10189;49.546;7.906;2023-04-25T12:20:18;97821.00;;;15.20
20058;BMP180;10189;49.546;7.906;2023-04-25T12:22:47;97826.00;;;15.00
20058;BMP180;10189;49.546;7.906;2023-04-25T12:25:44;97821.00;;;14.80
20058;BMP180;10189;49.546;7.906;2023-04-25T12:28:20;97826.00;;;15.20
20058;BMP180;10189;49.546;7.906;2023-04-25T12:30:58;97824.00;;;15.10
20058;BMP180;10189;49.546;7.906;2023-04-25T12:33:28;97832.00;;;15.30
20058;BMP180;10189;49.546;7.906;2023-04-25T12:35:55;97822.00;;;15.00
20058;BMP180;10189;49.546;7.906;2023-04-25T12:38:28;97834.00;;;14.70
20058;BMP180;10189;49.546;7.906;2023-04-25T12:40:57;97839.00;;;14.30
20058;BMP180;10189;49.546;7.906;2023-04-25T12:43:23;97851.00;;;14.10
20058;BMP180;10189;49.546;7.906;2023-04-25T12:45:54;97848.00;;;13.80
20058;BMP180;10189;49.546;7.906;2023-04-25T12:48:21;97853.00;;;13.60
20058;BMP180;10189;49.546;7.906;2023-04-25T12:50:49;97851.00;;;13.30
20058;BMP180;10189;49.546;7.906;2023-04-25T12:53:20;97845.00;;;13.40
20058;BMP180;10189;49.546;7.906;2023-04-25T12:55:47;97850.00;;;13.40
20058;BMP180;10189;49.546;7.906;2023-04-25T12:58:15;97860.00;;;13.30
20058;BMP180;10189;49.546;7.906;2023-04-25T13:00:41;97856.00;;;13.70
20058;BMP180;10189;49.546;7.906;2023-04-25T13:03:08;97855.00;;;13.80
20058;BMP180;10189;49.546;7.906;2023-04-25T13:05:35;97856.00;;;13.70
20058;BMP180;10189;49.546;7.906;2023-04-25T13:08:01;97860.00;;;13.30
20058;BMP180;10189;49.546;7.906;2023-04-25T13:10:27;97862.00;;;13.50
20058;BMP180;10189;49.546;7.906;2023-04-25T13:12:53;97863.00;;;13.20
20058;BMP180;10189;49.546;7.906;2023-04-25T13:15:19;97866.00;;;13.20
20058;BMP180;10189;49.546;7.906;2023-04-25T13:17:46;97858.00;;;13.40
20058;BMP180;10189;49.546;7.906;2023-04-25T13:20:12;97856.00;;;13.70
20058;BMP180;10189;49.546;7.906;2023-04-25T13:22:39;97848.00;;;13.80
20058;BMP180;10189;49.546;7.906;2023-04-25T13:25:07;97856.00;;;13.70
20058;BMP180;10189;49.546;7.906;2023-04-25T13:27:35;97866.00;;;13.90
20058;BMP180;10189;49.546;7.906;2023-04-25T13:30:03;97873.00;;;13.90
20058;BMP180;10189;49.546;7.906;2023-04-25T13:32:39;97867.00;;;14.00
20058;BMP180;10189;49.546;7.906;2023-04-25T13:35:13;97875.00;;;14.20
20058;BMP180;10189;49.546;7.906;2023-04-25T13:37:42;97874.00;;;14.00
20058;BMP180;10189;49.546;7.906;2023-04-25T13:40:11;97880.00;;;14.10
20058;BMP180;10189;49.546;7.906;2023-04-25T13:42:38;97883.00;;;13.60
20058;BMP180;10189;49.546;7.906;2023-04-25T13:45:06;97890.00;;;13.30
20058;BMP180;10189;49.546;7.906;2023-04-25T13:47:32;97885.00;;;13.40
20058;BMP180;10189;49.546;7.906;2023-04-25T13:49:58;97886.00;;;13.40
20058;BMP180;10189;49.546;7.906;2023-04-25T13:52:25;97884.00;;;13.50
20058;BMP180;10189;49.546;7.906;2023-04-25T13:54:51;97877.00;;;13.70
20058;BMP180;10189;49.546;7.906;2023-04-25T13:57:18;97884.00;;;13.50
20058;BMP180;10189;49.546;7.906;2023-04-25T13:59:45;97883.00;;;13.70
20058;BMP180;10189;49.546;7.906;2023-04-25T14:02:12;97890.00;;;13.70
20058;BMP180;10189;49.546;7.906;2023-04-25T14:04:38;97885.00;;;13.80
20058;BMP180;10189;49.546;7.906;2023-04-25T14:07:04;97888.00;;;13.60
20058;BMP180;10189;49.546;7.906;2023-04-25T14:09:30;97885.00;;;13.60
20058;BMP180;10189;49.546;7.906;2023-04-25T14:11:57;97890.00;;;14.20
20058;BMP180;10189;49.546;7.906;2023-04-25T14:14:23;97873.00;;;14.00
20058;BMP180;10189;49.546;7.906;2023-04-25T14:16:51;97881.00;;;14.20
20058;BMP180;10189;49.546;7.906;2023-04-25T14:19:20;97871.00;;;14.30
20058;BMP180;10189;49.546;7.906;2023-04-25T14:21:46;97859.00;;;14.30
20058;BMP180;10189;49.546;7.906;2023-04-25T14:24:13;97860.00;;;14.80
20058;BMP180;10189;49.546;7.906;2023-04-25T14:26:39;97872.00;;;15.20
20058;BMP180;10189;49.546;7.906;2023-04-25T14:29:07;97861.00;;;15.00
20058;BMP180;10189;49.546;7.906;2023-04-25T14:31:34;97875.00;;;14.40
20058;BMP180;10189;49.546;7.906;2023-04-25T14:34:01;97865.00;;;14.60